createdAt,value
2022-12-15T00:01:40.612Z,-2.59
2022-12-15T00:04:25.975Z,-2.61
2022-12-15T00:07:11.155Z,-2.82
2022-12-15T00:09:56.585Z,-2.76
2022-12-15T00:12:42.005Z,-2.77
2022-12-15T00:15:27.673Z,-2.69
2022-12-15T00:18:14.258Z,-2.70
2022-12-15T00:20:59.379Z,-2.68
2022-12-15T00:23:44.592Z,-2.68
2022-12-15T00:26:29.957Z,-2.62
2022-12-15T00:29:15.244Z,-2.71
2022-12-15T00:32:00.599Z,-2.76
2022-12-15T00:34:47.746Z,-2.81
2022-12-15T00:37:33.065Z,-2.63
2022-12-15T00:40:04.663Z,-2.69
2022-12-15T00:42:32.480Z,-2.70
2022-12-15T00:45:00.409Z,-2.66
2022-12-15T00:47:27.253Z,-2.56
2022-12-15T00:50:13.903Z,-2.63
2022-12-15T00:52:59.213Z,-2.67
2022-12-15T00:55:44.618Z,-2.68
2022-12-15T00:58:29.824Z,-2.66
2022-12-15T01:01:15.163Z,-2.81
2022-12-15T01:04:00.770Z,-2.78
2022-12-15T01:06:47.135Z,-2.77
2022-12-15T01:09:32.367Z,-2.78
2022-12-15T01:12:17.714Z,-2.71
2022-12-15T01:15:03.094Z,-2.79
2022-12-15T01:17:48.454Z,-2.77
2022-12-15T01:20:18.408Z,-2.71
2022-12-15T01:22:48.808Z,-2.76
2022-12-15T01:25:17.777Z,-2.76
2022-12-15T01:27:46.066Z,-2.77
2022-12-15T01:30:16.685Z,-2.71
2022-12-15T01:32:46.313Z,-2.75
2022-12-15T01:35:14.675Z,-2.72
2022-12-15T01:37:42.469Z,-2.64
2022-12-15T01:40:31.766Z,-2.65
2022-12-15T01:42:59.515Z,-2.64
2022-12-15T01:45:58.766Z,-2.64
2022-12-15T01:48:35.053Z,-2.66
2022-12-15T01:51:11.583Z,-2.81
2022-12-15T01:53:43.701Z,-2.82
2022-12-15T01:56:14.206Z,-2.89
2022-12-15T01:58:46.187Z,-2.82
2022-12-15T02:01:14.177Z,-2.83
2022-12-15T02:03:44.676Z,-2.74
2022-12-15T02:06:14.072Z,-2.72
2022-12-15T02:08:44.309Z,-2.76
2022-12-15T02:11:27.978Z,-2.72
2022-12-15T02:14:01.331Z,-2.77
2022-12-15T02:16:40.861Z,-2.91
2022-12-15T02:19:27.794Z,-2.90
2022-12-15T02:22:13.094Z,-2.78
2022-12-15T02:25:10.483Z,-2.91
2022-12-15T07:39:35.093Z,-2.98
2022-12-15T07:42:03.142Z,-3.04
2022-12-15T07:44:31.959Z,-3.10
2022-12-15T07:46:59.789Z,-3.05
2022-12-15T07:49:27.623Z,-2.93
2022-12-15T07:51:58.562Z,-2.82
2022-12-15T07:54:26.469Z,-2.78
2022-12-15T07:56:55.696Z,-2.94
2022-12-15T07:59:23.747Z,-2.98
2022-12-15T08:01:52.466Z,-2.67
2022-12-15T08:04:20.542Z,-2.90
2022-12-15T08:06:48.573Z,-2.63
2022-12-15T08:09:16.421Z,-2.70
2022-12-15T08:11:44.228Z,-2.58
2022-12-15T08:14:17.560Z,-2.61
2022-12-15T08:16:46.415Z,-2.65
2022-12-15T08:19:16.826Z,-2.65
2022-12-15T08:21:46.690Z,-2.54
2022-12-15T08:24:15.475Z,-2.46
2022-12-15T08:26:44.541Z,-2.46
2022-12-15T08:32:07.753Z,-2.46
2022-12-15T08:34:35.743Z,-2.55
2022-12-15T08:37:03.846Z,-2.37
2022-12-15T08:39:31.772Z,-2.19
2022-12-15T08:41:59.461Z,-2.19
2022-12-15T08:44:28.612Z,-2.26
2022-12-15T08:46:56.248Z,-2.22
2022-12-15T08:49:24.146Z,-2.49
2022-12-15T08:51:52.362Z,-2.26
2022-12-15T08:54:20.540Z,-2.08
2022-12-15T08:56:48.475Z,-1.92
2022-12-15T08:59:16.380Z,-1.97
2022-12-15T09:01:45.580Z,-1.98
2022-12-15T09:04:13.492Z,-1.69
2022-12-15T09:06:41.303Z,-1.93
2022-12-15T09:09:11.335Z,-1.88
2022-12-15T09:11:39.054Z,-2.12
2022-12-15T09:14:07.729Z,-2.44
2022-12-15T09:16:35.748Z,-2.14
2022-12-15T09:19:05.146Z,-1.88
2022-12-15T09:21:32.842Z,-1.71
2022-12-15T09:24:02.699Z,-1.92
2022-12-15T09:26:32.828Z,-1.82
2022-12-15T09:29:01.741Z,-1.61
2022-12-15T09:31:32.549Z,-1.86
2022-12-15T09:34:02.074Z,-1.45
2022-12-15T09:36:32.821Z,-1.30
2022-12-15T09:39:02.843Z,-1.04
2022-12-15T09:41:32.878Z,-1.08
2022-12-15T09:44:04.032Z,-0.97
2022-12-15T09:46:52.301Z,-0.88
2022-12-15T09:49:37.621Z,-0.94
2022-12-15T09:52:11.657Z,-0.82
2022-12-15T09:54:42.328Z,-0.60
2022-12-15T09:57:18.451Z,-0.68
2022-12-15T09:59:58.769Z,-0.72
2022-12-15T10:02:46.140Z,-1.05
2022-12-15T10:05:50.027Z,-0.89
2022-12-15T10:08:20.778Z,-1.11
2022-12-15T10:10:57.089Z,-1.01
2022-12-15T10:13:31.811Z,-1.04
2022-12-15T10:16:03.111Z,-0.78
2022-12-15T10:18:38.324Z,-0.79
2022-12-15T10:21:06.342Z,-1.15
2022-12-15T10:23:37.629Z,-0.93
2022-12-15T10:26:20.240Z,-0.98
2022-12-15T10:29:14.139Z,-0.99
2022-12-15T10:31:51.007Z,-0.78
2022-12-15T10:34:26.727Z,-0.99
2022-12-15T10:36:55.934Z,-1.11
2022-12-15T10:39:25.716Z,-1.13
2022-12-15T10:42:15.918Z,-1.35
2022-12-15T10:44:50.395Z,-1.38
2022-12-15T10:47:21.898Z,-1.34
2022-12-15T10:49:50.097Z,-1.29
2022-12-15T10:52:24.398Z,-1.43
2022-12-15T10:54:55.397Z,-1.60
2022-12-15T10:57:27.753Z,-1.50
2022-12-15T10:59:56.711Z,-1.34
2022-12-15T11:02:33.328Z,-1.45
2022-12-15T11:05:04.174Z,-1.09
2022-12-15T11:07:40.573Z,-1.02
2022-12-15T11:10:22.595Z,-1.22
2022-12-15T11:13:02.452Z,-0.97
2022-12-15T11:15:50.571Z,-1.25
2022-12-15T11:18:32.961Z,-1.41
2022-12-15T11:21:05.424Z,-1.41
2022-12-15T11:24:00.394Z,-1.63
2022-12-15T11:26:38.919Z,-1.52
2022-12-15T11:29:16.860Z,-1.11
2022-12-15T11:31:48.842Z,-0.76
2022-12-15T11:34:19.437Z,-0.96
2022-12-15T11:37:02.679Z,-0.94
2022-12-15T11:39:48.707Z,-1.04
2022-12-15T11:42:26.014Z,-1.19
2022-12-15T11:45:04.107Z,-0.94
2022-12-15T11:47:42.641Z,-1.04
2022-12-15T11:50:22.898Z,-0.94
2022-12-15T11:53:02.307Z,-0.92
2022-12-15T11:55:41.561Z,-0.94
2022-12-15T12:02:02.447Z,-1.45
2022-12-15T12:04:40.420Z,-1.31
2022-12-15T12:07:14.586Z,-1.44
2022-12-15T12:09:52.081Z,-1.13
2022-12-15T12:12:31.733Z,-1.39
2022-12-15T12:15:16.454Z,-1.06
2022-12-15T12:17:50.418Z,-1.11
2022-12-15T12:20:22.180Z,-0.88
2022-12-15T12:22:58.660Z,-0.98
2022-12-15T12:25:27.956Z,-1.01
2022-12-15T12:27:59.429Z,-0.92
2022-12-15T12:30:33.333Z,-1.28
2022-12-15T12:33:10.368Z,-1.39
2022-12-15T12:35:43.234Z,-1.56
2022-12-15T12:38:12.532Z,-1.53
2022-12-15T12:40:53.290Z,-1.29
2022-12-15T12:43:32.582Z,-1.17
2022-12-15T12:46:05.978Z,-1.09
2022-12-15T12:48:39.536Z,-1.17
2022-12-15T12:51:25.912Z,-1.02
2022-12-15T12:53:54.620Z,-0.77
2022-12-15T12:56:41.531Z,-0.76
2022-12-15T12:59:37.275Z,-0.77
2022-12-15T13:02:42.060Z,-0.73
2022-12-15T13:05:26.950Z,-0.64
2022-12-15T13:07:56.971Z,-0.56
2022-12-15T13:10:26.506Z,-0.43
2022-12-15T13:12:55.390Z,-0.51
2022-12-15T13:15:42.847Z,-0.83
2022-12-15T13:18:17.315Z,-0.83
2022-12-15T13:23:41.147Z,-0.65
2022-12-15T13:26:19.164Z,-0.81
2022-12-15T13:28:51.625Z,-0.71
2022-12-15T13:31:34.515Z,-0.64
2022-12-15T13:34:13.895Z,-0.71
2022-12-15T13:36:54.513Z,-0.61
2022-12-15T13:39:56.212Z,-0.58
2022-12-15T13:42:45.374Z,-0.75
2022-12-15T13:45:48.607Z,-0.57
2022-12-15T13:48:27.113Z,-0.68
2022-12-15T13:51:03.139Z,-0.79
2022-12-15T13:53:40.524Z,-0.63
2022-12-15T13:56:24.486Z,-0.56
2022-12-15T13:58:58.399Z,-0.59
2022-12-15T14:04:17.191Z,-0.52
2022-12-15T14:06:50.929Z,-0.74
2022-12-15T14:09:25.312Z,-0.81
2022-12-15T14:11:54.281Z,-0.73
2022-12-15T14:14:25.638Z,-0.90
2022-12-15T14:16:57.183Z,-0.86
2022-12-15T14:19:27.131Z,-0.86
2022-12-15T14:21:57.881Z,-0.98
2022-12-15T14:24:39.615Z,-0.90
2022-12-15T14:27:08.036Z,-0.94
2022-12-15T14:29:35.777Z,-0.91
2022-12-15T14:32:03.711Z,-1.02
2022-12-15T14:34:34.097Z,-1.01
2022-12-15T14:37:07.661Z,-0.99
2022-12-15T14:39:42.347Z,-1.09
2022-12-15T14:42:18.865Z,-1.25
2022-12-15T14:44:50.714Z,-1.22
2022-12-15T14:47:24.527Z,-1.31
2022-12-15T14:49:52.719Z,-1.29
2022-12-15T14:52:29.226Z,-1.28
2022-12-15T14:55:00.330Z,-1.50
2022-12-15T14:57:29.417Z,-1.41
2022-12-15T14:59:57.203Z,-1.41
2022-12-15T15:02:28.550Z,-1.38
2022-12-15T15:03:09.591Z,-1.15
2022-12-15T15:03:09.888Z,-0.59
2022-12-15T15:03:10.520Z,-0.85
2022-12-15T15:05:03.066Z,-1.50
2022-12-15T15:07:32.976Z,-1.46
2022-12-15T15:10:03.828Z,-1.39
2022-12-15T15:12:44.988Z,-1.47
2022-12-15T15:15:17.743Z,-1.50
2022-12-15T15:17:49.974Z,-1.62
2022-12-15T15:20:23.986Z,-1.61
2022-12-15T15:23:12.292Z,-1.79
2022-12-15T15:25:42.631Z,-1.66
2022-12-15T15:28:16.951Z,-1.70
2022-12-15T15:30:48.617Z,-1.68
2022-12-15T15:33:17.450Z,-1.71
2022-12-15T15:35:47.600Z,-1.75
2022-12-15T15:38:23.635Z,-1.78
2022-12-15T15:40:55.115Z,-1.89
2022-12-15T15:43:23.286Z,-1.80
2022-12-15T15:46:02.917Z,-1.86
2022-12-15T15:48:35.471Z,-1.76
2022-12-15T15:51:04.662Z,-1.74
2022-12-15T15:53:35.502Z,-1.75
2022-12-15T15:56:07.447Z,-1.76
2022-12-15T15:58:36.089Z,-1.75
2022-12-15T16:01:09.501Z,-1.74
2022-12-15T16:03:39.383Z,-1.79
2022-12-15T16:06:13.169Z,-1.72
2022-12-15T16:08:41.259Z,-1.69
2022-12-15T16:11:12.104Z,-1.72
2022-12-15T16:13:39.917Z,-1.74
2022-12-15T16:16:14.589Z,-1.83
2022-12-15T16:18:42.378Z,-1.89
2022-12-15T16:21:13.854Z,-1.84
2022-12-15T16:23:44.064Z,-1.80
2022-12-15T16:26:16.689Z,-1.99
2022-12-15T16:28:44.426Z,-1.89
2022-12-15T16:31:17.150Z,-1.97
2022-12-15T16:33:44.863Z,-2.06
2022-12-15T16:36:14.849Z,-2.02
2022-12-15T16:38:43.897Z,-1.99
2022-12-15T16:41:17.355Z,-2.06
2022-12-15T16:43:48.099Z,-2.02
2022-12-15T16:46:16.876Z,-2.03
2022-12-15T16:48:44.626Z,-2.11
2022-12-15T16:51:36.487Z,-2.00
2022-12-15T16:54:04.680Z,-2.00
2022-12-15T16:56:34.129Z,-2.01
2022-12-15T16:59:32.048Z,-1.98
2022-12-15T17:01:49.937Z,-2.02
2022-12-15T17:04:19.178Z,-2.12
2022-12-15T17:06:46.964Z,-2.07
2022-12-15T17:09:20.213Z,-2.04
2022-12-15T17:11:49.531Z,-2.00
2022-12-15T17:14:17.239Z,-2.11
2022-12-15T17:16:45.196Z,-2.28
2022-12-15T17:19:19.127Z,-2.23
2022-12-15T17:21:51.778Z,-2.27
2022-12-15T17:24:22.227Z,-2.31
2022-12-15T17:26:51.926Z,-2.27
2022-12-15T17:29:22.734Z,-2.33
2022-12-15T17:31:50.791Z,-2.37
2022-12-15T17:34:28.160Z,-2.35
2022-12-15T17:36:56.334Z,-2.35
2022-12-15T17:39:24.902Z,-2.36
2022-12-15T17:42:02.636Z,-2.32
2022-12-15T17:44:34.211Z,-2.36
2022-12-15T17:47:03.638Z,-2.33
2022-12-15T17:49:35.674Z,-2.32
2022-12-15T17:52:08.044Z,-2.29
2022-12-15T17:54:35.793Z,-2.27
2022-12-15T17:57:05.004Z,-2.31
2022-12-15T17:59:32.697Z,-2.33
2022-12-15T18:02:00.436Z,-2.35
2022-12-15T18:04:28.222Z,-2.40
2022-12-15T18:07:01.610Z,-2.43
2022-12-15T18:09:30.106Z,-2.47
2022-12-15T18:11:57.777Z,-2.49
2022-12-15T18:14:28.619Z,-2.55
2022-12-15T18:16:56.261Z,-2.61
2022-12-15T18:19:23.933Z,-2.59
2022-12-15T18:21:51.675Z,-2.59
2022-12-15T18:24:21.492Z,-2.52
2022-12-15T18:26:49.181Z,-2.52
2022-12-15T18:29:18.656Z,-2.57
2022-12-15T18:31:49.238Z,-2.56
2022-12-15T18:34:21.009Z,-2.47
2022-12-15T18:36:50.355Z,-2.52
2022-12-15T18:39:19.942Z,-2.55
2022-12-15T18:41:49.080Z,-2.55
2022-12-15T18:44:22.419Z,-2.62
2022-12-15T18:46:51.986Z,-2.70
2022-12-15T18:49:20.255Z,-2.62
2022-12-15T18:51:48.950Z,-2.86
2022-12-15T18:54:18.047Z,-2.81
2022-12-15T18:56:45.979Z,-2.82
2022-12-15T18:59:15.925Z,-2.82
2022-12-15T19:01:43.905Z,-2.87
2022-12-15T19:04:13.225Z,-2.95
2022-12-15T19:06:41.347Z,-2.94
2022-12-15T19:09:14.952Z,-3.02
2022-12-15T19:12:03.051Z,-3.05
2022-12-15T19:14:43.309Z,-3.11
2022-12-15T19:17:29.603Z,-3.13
2022-12-15T19:20:16.277Z,-3.09
2022-12-15T19:22:44.331Z,-3.13
2022-12-15T19:25:14.861Z,-3.11
2022-12-15T19:27:42.567Z,-3.16
2022-12-15T19:30:15.878Z,-3.17
2022-12-15T19:32:43.555Z,-3.13
2022-12-15T19:35:13.264Z,-3.07
2022-12-15T19:37:44.373Z,-3.02
2022-12-15T19:40:18.957Z,-3.02
2022-12-15T19:42:48.484Z,-3.07
2022-12-15T19:45:18.861Z,-3.14
2022-12-15T19:47:46.613Z,-3.18
2022-12-15T19:50:17.754Z,-3.12
2022-12-15T19:52:48.294Z,-3.20
2022-12-15T19:55:17.398Z,-3.17
2022-12-15T19:57:46.056Z,-3.19
2022-12-15T20:00:18.571Z,-3.30
2022-12-15T20:02:46.362Z,-3.30
2022-12-15T20:05:14.841Z,-3.27
2022-12-15T20:07:44.099Z,-3.28
2022-12-15T20:10:24.455Z,-3.34
2022-12-15T20:12:55.673Z,-3.32
2022-12-15T20:15:25.848Z,-3.31
2022-12-15T20:17:56.442Z,-3.30
2022-12-15T20:20:25.931Z,-3.32
2022-12-15T20:22:57.593Z,-3.31
2022-12-15T20:25:27.418Z,-3.31
2022-12-15T20:27:55.346Z,-3.27
2022-12-15T20:30:25.397Z,-3.23
2022-12-15T20:32:53.503Z,-3.04
2022-12-15T20:35:22.937Z,-2.91
2022-12-15T20:37:51.006Z,-2.73
2022-12-15T20:40:22.687Z,-2.55
2022-12-15T20:42:51.455Z,-2.45
2022-12-15T20:45:21.040Z,-2.35
2022-12-15T20:47:50.863Z,-2.19
2022-12-15T20:50:27.942Z,-2.05
2022-12-15T20:52:56.066Z,-1.97
2022-12-15T20:55:25.140Z,-1.86
2022-12-15T20:57:52.883Z,-1.81
2022-12-15T21:00:20.891Z,-1.74
2022-12-15T21:02:49.226Z,-1.64
2022-12-15T21:05:21.637Z,-1.62
2022-12-15T21:07:50.151Z,-1.67
2022-12-15T21:10:19.854Z,-2.00
2022-12-15T21:12:50.523Z,-1.95
2022-12-15T21:15:20.268Z,-1.98
2022-12-15T21:17:57.345Z,-1.93
2022-12-15T21:20:36.365Z,-2.14
2022-12-15T21:23:04.093Z,-2.11
2022-12-15T21:25:31.762Z,-2.25
2022-12-15T21:28:00.824Z,-2.20
2022-12-15T21:30:28.953Z,-2.16
2022-12-15T21:32:56.726Z,-2.23
2022-12-15T21:35:30.118Z,-2.20
2022-12-15T21:37:59.777Z,-2.18
2022-12-15T21:40:29.446Z,-2.26
2022-12-15T21:42:58.003Z,-2.17
2022-12-15T21:45:27.651Z,-2.15
2022-12-15T21:48:12.996Z,-2.12
2022-12-15T21:50:43.302Z,-2.10
2022-12-15T21:53:15.903Z,-2.03
2022-12-15T21:55:45.796Z,-2.04
2022-12-15T21:58:19.912Z,-1.96
2022-12-15T22:00:49.169Z,-1.91
2022-12-15T22:03:17.025Z,-1.86
2022-12-15T22:05:44.804Z,-1.85
2022-12-15T22:08:18.366Z,-1.79
2022-12-15T22:10:47.001Z,-1.72
2022-12-15T22:13:19.287Z,-1.73
2022-12-15T22:15:50.710Z,-1.77
2022-12-15T22:18:23.112Z,-1.81
2022-12-15T22:20:52.471Z,-1.71
2022-12-15T22:23:21.318Z,-1.77
2022-12-15T22:25:51.916Z,-1.75
2022-12-15T22:28:23.063Z,-1.69
2022-12-15T22:30:53.782Z,-1.70
2022-12-15T22:33:24.103Z,-1.67
2022-12-15T22:35:53.150Z,-1.72
2022-12-15T22:38:24.611Z,-1.76
2022-12-15T22:40:55.417Z,-1.70
2022-12-15T22:43:28.547Z,-1.69
2022-12-15T22:45:57.750Z,-1.70
2022-12-15T22:48:34.329Z,-1.69
2022-12-15T22:51:02.448Z,-1.50
2022-12-15T22:53:32.449Z,-1.45
2022-12-15T22:56:01.744Z,-1.54
2022-12-15T22:58:34.267Z,-1.59
2022-12-15T23:01:06.489Z,-1.56
2022-12-15T23:03:35.127Z,-1.52
2022-12-15T23:06:04.712Z,-1.51
2022-12-15T23:08:33.200Z,-1.53
2022-12-15T23:11:19.020Z,-1.51
2022-12-15T23:13:46.750Z,-1.50
2022-12-15T23:16:21.479Z,-1.49
2022-12-15T23:18:51.691Z,-1.59
2022-12-15T23:21:21.042Z,-1.47
2022-12-15T23:23:49.200Z,-1.47
2022-12-15T23:26:18.153Z,-1.33
2022-12-15T23:28:46.235Z,-1.33
2022-12-15T23:31:15.452Z,-1.37
2022-12-15T23:33:43.228Z,-1.33
2022-12-15T23:36:12.163Z,-1.31
2022-12-15T23:38:40.335Z,-1.32
2022-12-15T23:41:08.286Z,-1.46
2022-12-15T23:43:36.350Z,-1.53
2022-12-15T23:46:06.510Z,-1.47
2022-12-15T23:48:37.220Z,-1.41
2022-12-15T23:51:07.413Z,-1.44
2022-12-15T23:53:36.556Z,-1.53
2022-12-15T23:56:06.353Z,-1.48
2022-12-15T23:58:34.159Z,-1.53
